createdAt,value
2023-02-11T00:00:23.528Z,3.78
2023-02-11T00:02:50.801Z,4.40
2023-02-11T00:05:18.023Z,4.28
2023-02-11T00:07:45.138Z,4.35
2023-02-11T00:10:12.089Z,4.00
2023-02-11T00:12:39.402Z,3.42
2023-02-11T00:15:07.119Z,3.78
2023-02-11T00:17:34.446Z,3.30
2023-02-11T00:20:01.201Z,4.47
2023-02-11T00:22:28.452Z,3.60
2023-02-11T00:24:57.121Z,3.70
2023-02-11T00:27:24.648Z,3.95
2023-02-11T00:29:52.017Z,3.13
2023-02-11T00:32:19.337Z,3.22
2023-02-11T00:34:46.457Z,3.25
2023-02-11T00:37:13.825Z,4.45
2023-02-11T00:39:42.511Z,4.15
2023-02-11T00:42:09.932Z,4.70
2023-02-11T00:44:37.274Z,4.25
2023-02-11T00:47:04.710Z,3.80
2023-02-11T00:49:31.955Z,3.72
2023-02-11T00:51:59.270Z,3.45
2023-02-11T00:54:28.431Z,3.78
2023-02-11T00:56:57.172Z,2.65
2023-02-11T00:59:25.227Z,4.53
2023-02-11T01:01:52.418Z,3.17
2023-02-11T01:04:20.407Z,4.82
2023-02-11T01:06:47.632Z,4.75
2023-02-11T01:09:14.740Z,4.38
2023-02-11T01:11:41.926Z,4.07
2023-02-11T01:14:09.272Z,3.97
2023-02-11T01:16:36.567Z,5.47
2023-02-11T01:19:03.934Z,4.03
2023-02-11T01:21:31.228Z,4.13
2023-02-11T01:23:58.489Z,4.30
2023-02-11T01:26:25.833Z,3.63
2023-02-11T01:28:52.976Z,3.83
2023-02-11T01:31:20.311Z,4.25
2023-02-11T01:33:47.581Z,3.90
2023-02-11T01:36:14.713Z,4.63
2023-02-11T01:38:43.592Z,4.45
2023-02-11T01:41:12.630Z,4.45
2023-02-11T01:43:44.715Z,4.40
2023-02-11T01:46:29.037Z,4.57
2023-02-11T01:48:58.633Z,4.05
2023-02-11T01:51:27.406Z,5.13
2023-02-11T01:54:15.346Z,3.40
2023-02-11T01:57:03.587Z,2.85
2023-02-11T01:59:40.281Z,3.53
2023-02-11T02:04:39.909Z,4.93
2023-02-11T02:07:13.053Z,5.00
2023-02-11T02:09:42.734Z,4.70
2023-02-11T02:12:10.181Z,4.88
2023-02-11T02:14:41.248Z,4.18
2023-02-11T02:17:11.554Z,4.82
2023-02-11T02:19:52.741Z,4.80
2023-02-11T02:22:22.112Z,2.72
2023-02-11T02:24:59.886Z,4.78
2023-02-11T02:27:30.314Z,4.85
2023-02-11T02:32:44.388Z,4.75
2023-02-11T02:35:17.300Z,3.97
2023-02-11T02:37:52.263Z,4.07
2023-02-11T02:40:22.269Z,5.15
2023-02-11T02:42:50.671Z,3.95
2023-02-11T02:45:17.850Z,5.20
2023-02-11T02:47:45.026Z,3.75
2023-02-11T02:50:14.500Z,4.45
2023-02-11T02:52:51.040Z,3.20
2023-02-11T02:55:26.415Z,4.20
2023-02-11T02:57:54.123Z,5.03
2023-02-11T03:00:31.058Z,4.45
2023-02-11T03:03:07.567Z,3.63
2023-02-11T03:05:44.320Z,4.30
2023-02-11T03:10:41.038Z,4.72
2023-02-11T03:13:08.737Z,3.78
2023-02-11T03:15:39.734Z,5.03
2023-02-11T03:18:08.168Z,4.55
2023-02-11T03:20:37.432Z,4.32
2023-02-11T03:23:24.529Z,4.95
2023-02-11T03:25:55.488Z,3.38
2023-02-11T03:28:22.682Z,4.20
2023-02-11T03:30:54.050Z,4.45
2023-02-11T03:33:25.668Z,5.38
2023-02-11T03:35:58.850Z,4.00
2023-02-11T03:38:29.436Z,4.78
2023-02-11T03:40:56.889Z,5.90
2023-02-11T03:43:30.449Z,4.68
2023-02-11T03:45:57.870Z,4.70
2023-02-11T03:48:30.601Z,4.70
2023-02-11T03:50:59.089Z,4.03
2023-02-11T03:53:25.812Z,5.60
2023-02-11T03:55:55.980Z,4.47
2023-02-11T03:58:23.378Z,5.53
2023-02-11T04:00:51.013Z,5.13
2023-02-11T04:03:19.140Z,5.63
2023-02-11T04:05:46.417Z,5.18
2023-02-11T04:08:13.989Z,6.13
2023-02-11T04:10:41.377Z,5.80
2023-02-11T04:13:08.675Z,5.50
2023-02-11T04:15:35.857Z,5.43
2023-02-11T04:18:03.589Z,6.55
2023-02-11T04:20:31.129Z,5.00
2023-02-11T04:22:58.385Z,6.07
2023-02-11T04:25:26.300Z,7.78
2023-02-11T04:27:53.609Z,6.07
2023-02-11T04:30:20.837Z,7.13
2023-02-11T04:32:48.065Z,7.10
2023-02-11T04:35:15.520Z,8.10
2023-02-11T04:37:42.817Z,7.88
2023-02-11T04:40:10.603Z,7.72
2023-02-11T04:42:38.041Z,8.13
2023-02-11T04:45:05.654Z,7.53
2023-02-11T04:47:33.050Z,7.07
2023-02-11T04:50:00.384Z,7.47
2023-02-11T04:52:27.503Z,7.78
2023-02-11T04:54:54.596Z,7.22
2023-02-11T04:57:21.974Z,8.93
2023-02-11T04:59:49.067Z,7.90
2023-02-11T05:02:16.196Z,8.70
2023-02-11T05:04:43.470Z,10.68
2023-02-11T05:07:10.639Z,8.63
2023-02-11T05:09:37.952Z,9.30
2023-02-11T05:12:05.110Z,9.43
2023-02-11T05:14:33.431Z,8.30
2023-02-11T05:17:00.788Z,10.90
2023-02-11T05:19:28.201Z,9.02
2023-02-11T05:22:02.625Z,9.65
2023-02-11T05:24:32.259Z,8.70
2023-02-11T05:26:59.606Z,9.88
2023-02-11T05:29:26.918Z,5.28
2023-02-11T05:31:54.047Z,8.18
2023-02-11T05:34:21.371Z,11.00
2023-02-11T05:36:48.506Z,8.55
2023-02-11T05:39:15.884Z,11.20
2023-02-11T05:41:43.084Z,11.75
2023-02-11T05:44:10.398Z,7.28
2023-02-11T05:46:37.835Z,11.25
2023-02-11T05:49:05.068Z,11.07
2023-02-11T05:51:32.350Z,12.30
2023-02-11T05:53:59.874Z,12.55
2023-02-11T05:56:27.410Z,11.27
2023-02-11T05:58:54.810Z,5.15
2023-02-11T06:01:21.967Z,12.30
2023-02-11T06:03:50.294Z,10.48
2023-02-11T06:06:18.087Z,11.10
2023-02-11T06:08:45.234Z,10.30
2023-02-11T06:11:12.658Z,11.77
2023-02-11T06:13:39.610Z,11.07
2023-02-11T06:16:07.099Z,10.85
2023-02-11T06:18:34.392Z,11.25
2023-02-11T06:21:01.815Z,12.65
2023-02-11T06:23:30.499Z,11.25
2023-02-11T06:26:02.330Z,12.15
2023-02-11T06:28:31.450Z,7.55
2023-02-11T06:30:59.161Z,12.95
2023-02-11T06:33:26.476Z,12.48
2023-02-11T06:35:53.699Z,13.75
2023-02-11T06:38:20.784Z,12.05
2023-02-11T06:40:49.223Z,11.27
2023-02-11T06:43:16.827Z,13.52
2023-02-11T06:45:44.208Z,11.90
2023-02-11T06:48:11.741Z,14.15
2023-02-11T06:50:39.052Z,13.70
2023-02-11T06:53:06.364Z,12.90
2023-02-11T06:55:35.655Z,12.55
2023-02-11T06:58:02.841Z,13.02
2023-02-11T07:00:30.055Z,11.70
2023-02-11T07:02:57.517Z,12.93
2023-02-11T07:05:24.878Z,12.88
2023-02-11T07:07:52.278Z,13.45
2023-02-11T07:10:19.729Z,13.93
2023-02-11T07:12:47.251Z,12.20
2023-02-11T07:15:14.725Z,14.38
2023-02-11T07:17:41.945Z,14.55
2023-02-11T07:20:12.007Z,15.20
2023-02-11T07:22:39.271Z,9.57
2023-02-11T07:25:07.713Z,13.80
2023-02-11T07:27:34.873Z,13.95
2023-02-11T07:30:02.037Z,14.48
2023-02-11T07:32:29.322Z,14.55
2023-02-11T07:34:56.567Z,15.65
2023-02-11T07:37:23.710Z,13.45
2023-02-11T07:39:50.984Z,14.48
2023-02-11T07:42:18.122Z,13.65
2023-02-11T07:44:45.392Z,13.90
2023-02-11T07:47:12.881Z,13.80
2023-02-11T07:49:40.205Z,13.07
2023-02-11T07:52:07.411Z,14.43
2023-02-11T07:54:34.691Z,13.98
2023-02-11T07:57:02.027Z,14.50
2023-02-11T07:59:29.185Z,13.50
2023-02-11T08:01:56.582Z,14.63
2023-02-11T08:04:23.793Z,14.85
2023-02-11T08:06:52.888Z,14.60
2023-02-11T08:09:20.148Z,14.18
2023-02-11T08:11:47.368Z,11.65
2023-02-11T08:14:14.678Z,14.95
2023-02-11T08:16:41.569Z,14.13
2023-02-11T08:19:11.871Z,14.38
2023-02-11T08:21:39.912Z,13.50
2023-02-11T08:24:07.704Z,13.23
2023-02-11T08:26:35.584Z,13.77
2023-02-11T08:29:03.693Z,12.50
2023-02-11T08:31:33.812Z,14.20
2023-02-11T08:34:02.612Z,14.45
2023-02-11T08:36:30.673Z,14.07
2023-02-11T08:39:17.920Z,13.88
2023-02-11T08:41:47.140Z,16.00
2023-02-11T08:44:15.164Z,14.30
2023-02-11T08:46:42.536Z,15.70
2023-02-11T08:49:09.765Z,12.00
2023-02-11T08:51:36.967Z,14.25
2023-02-11T08:54:04.387Z,15.15
2023-02-11T08:56:33.203Z,16.35
2023-02-11T08:59:00.415Z,12.23
2023-02-11T09:01:28.938Z,13.60
2023-02-11T09:03:56.899Z,11.98
2023-02-11T09:06:24.962Z,12.77
2023-02-11T09:08:53.494Z,13.43
2023-02-11T09:11:22.345Z,14.13
2023-02-11T09:13:51.458Z,13.02
2023-02-11T09:16:21.374Z,14.07
2023-02-11T09:18:49.283Z,13.15
2023-02-11T09:21:17.822Z,13.93
2023-02-11T09:23:51.406Z,12.80
2023-02-11T09:26:26.126Z,15.10
2023-02-11T09:28:53.419Z,13.00
2023-02-11T09:31:22.416Z,13.25
2023-02-11T09:33:50.988Z,13.20
2023-02-11T09:36:19.878Z,11.98
2023-02-11T09:38:47.569Z,13.75
2023-02-11T09:41:26.411Z,9.10
2023-02-11T09:44:03.074Z,12.55
2023-02-11T09:49:23.856Z,12.30
2023-02-11T09:52:09.524Z,13.02
2023-02-11T09:55:04.932Z,12.95
2023-02-11T09:57:39.991Z,12.70
2023-02-11T10:01:08.826Z,11.32
2023-02-11T10:04:17.416Z,13.27
2023-02-11T10:07:24.332Z,12.95
2023-02-11T10:13:48.453Z,13.32
2023-02-11T10:16:50.636Z,11.40
2023-02-11T10:19:35.687Z,12.38
2023-02-11T10:22:13.193Z,13.18
2023-02-11T10:25:05.621Z,13.25
2023-02-11T10:27:34.953Z,11.50
2023-02-11T10:30:14.243Z,12.27
2023-02-11T10:33:07.089Z,11.05
2023-02-11T10:35:38.980Z,13.35
2023-02-11T10:38:19.203Z,11.23
2023-02-11T10:41:08.527Z,11.68
2023-02-11T10:43:41.070Z,12.50
2023-02-11T10:46:19.425Z,12.27
2023-02-11T10:48:50.665Z,11.30
2023-02-11T10:51:19.538Z,12.57
2023-02-11T10:57:18.098Z,11.32
2023-02-11T10:59:45.483Z,12.60
2023-02-11T11:02:53.927Z,12.52
2023-02-11T11:05:46.344Z,11.57
2023-02-11T11:08:14.119Z,10.32
2023-02-11T11:10:46.555Z,10.50
2023-02-11T11:13:37.710Z,11.13
2023-02-11T11:16:11.068Z,11.20
2023-02-11T11:18:39.181Z,11.30
2023-02-11T11:21:07.947Z,10.43
2023-02-11T11:23:38.774Z,10.02
2023-02-11T11:26:42.154Z,9.90
2023-02-11T11:29:20.383Z,8.43
2023-02-11T11:31:53.325Z,10.10
2023-02-11T11:34:30.130Z,6.70
2023-02-11T11:37:02.572Z,7.15
2023-02-11T11:39:33.858Z,7.95
2023-02-11T11:42:33.088Z,6.95
2023-02-11T11:45:15.967Z,7.40
2023-02-11T11:48:05.227Z,8.23
2023-02-11T11:50:53.591Z,7.55
2023-02-11T11:53:29.262Z,7.95
2023-02-11T11:56:07.654Z,7.55
2023-02-11T11:58:36.119Z,8.55
2023-02-11T12:04:03.708Z,7.28
2023-02-11T12:06:41.163Z,7.32
2023-02-11T12:09:27.534Z,6.43
2023-02-11T12:12:22.015Z,6.15
2023-02-11T12:15:07.983Z,6.93
2023-02-11T12:17:47.556Z,6.15
2023-02-11T12:20:18.252Z,6.10
2023-02-11T12:23:24.127Z,5.57
2023-02-11T12:26:09.713Z,6.95
2023-02-11T12:29:02.301Z,6.85
2023-02-11T12:31:38.096Z,7.00
2023-02-11T12:34:19.486Z,6.03
2023-02-11T12:36:56.037Z,6.22
2023-02-11T12:39:38.571Z,6.43
2023-02-11T12:42:49.413Z,6.15
2023-02-11T12:45:31.548Z,6.97
2023-02-11T12:48:10.358Z,6.35
2023-02-11T12:51:00.084Z,6.32
2023-02-11T12:53:27.405Z,6.65
2023-02-11T12:56:06.373Z,6.57
2023-02-11T12:58:44.929Z,5.45
2023-02-11T13:01:27.882Z,6.28
2023-02-11T13:04:05.714Z,6.50
2023-02-11T13:06:56.252Z,6.20
2023-02-11T13:09:53.881Z,6.20
2023-02-11T13:12:44.799Z,6.32
2023-02-11T13:15:15.121Z,6.40
2023-02-11T13:17:54.844Z,6.18
2023-02-11T13:21:02.201Z,5.63
2023-02-11T13:23:38.605Z,6.55
2023-02-11T13:26:13.005Z,6.32
2023-02-11T13:28:52.639Z,6.13
2023-02-11T13:31:20.720Z,6.13
2023-02-11T13:33:49.933Z,6.25
2023-02-11T13:36:19.821Z,6.15
2023-02-11T13:39:06.700Z,6.32
2023-02-11T13:44:26.740Z,6.20
2023-02-11T13:47:06.154Z,5.95
2023-02-11T13:49:37.597Z,5.97
2023-02-11T13:52:06.801Z,7.40
2023-02-11T13:57:27.110Z,6.68
2023-02-11T14:00:20.602Z,7.43
2023-02-11T14:03:35.818Z,6.68
2023-02-11T14:06:27.739Z,7.03
2023-02-11T14:09:10.135Z,6.18
2023-02-11T14:11:56.200Z,7.00
2023-02-11T14:14:26.798Z,6.63
2023-02-11T14:16:53.982Z,6.10
2023-02-11T14:19:33.024Z,6.30
2023-02-11T14:22:13.626Z,6.28
2023-02-11T14:24:46.294Z,6.45
2023-02-11T14:27:42.158Z,6.43
2023-02-11T14:30:30.219Z,6.65
2023-02-11T14:32:57.704Z,6.32
2023-02-11T14:35:46.222Z,4.90
2023-02-11T14:38:19.750Z,6.13
2023-02-11T14:41:00.989Z,5.78
2023-02-11T14:43:35.460Z,6.28
2023-02-11T14:46:03.634Z,6.50
2023-02-11T14:48:32.439Z,6.38
2023-02-11T14:51:03.801Z,5.70
2023-02-11T14:53:32.630Z,6.22
2023-02-11T14:55:59.843Z,5.50
2023-02-11T14:58:29.700Z,5.90
2023-02-11T15:01:09.088Z,5.97
2023-02-11T15:03:48.585Z,5.78
2023-02-11T15:06:18.876Z,5.38
2023-02-11T15:08:48.507Z,5.65
2023-02-11T15:11:18.159Z,5.07
2023-02-11T15:13:49.847Z,5.90
2023-02-11T15:16:19.784Z,6.25
2023-02-11T15:18:52.186Z,5.90
2023-02-11T15:21:23.775Z,5.45
2023-02-11T15:24:02.128Z,5.57
2023-02-11T15:26:30.240Z,5.90
2023-02-11T15:28:57.551Z,5.40
2023-02-11T15:31:26.308Z,6.07
2023-02-11T15:33:54.048Z,6.70
2023-02-11T15:36:28.243Z,6.47
2023-02-11T15:39:14.386Z,6.57
2023-02-11T15:41:41.591Z,6.30
2023-02-11T15:44:27.351Z,6.25
2023-02-11T15:46:54.928Z,6.78
2023-02-11T15:49:23.239Z,5.47
2023-02-11T15:51:50.675Z,5.80
2023-02-11T15:54:26.752Z,5.68
2023-02-11T15:56:55.573Z,5.93
2023-02-11T15:59:38.242Z,5.55
2023-02-11T16:02:15.172Z,5.32
2023-02-11T16:04:49.705Z,5.03
2023-02-11T16:07:35.763Z,5.22
2023-02-11T16:10:03.017Z,5.80
2023-02-11T16:12:30.343Z,5.70
2023-02-11T16:14:59.803Z,6.10
2023-02-11T16:17:28.439Z,5.55
2023-02-11T16:19:55.892Z,5.47
2023-02-11T16:22:30.407Z,6.45
2023-02-11T16:24:59.462Z,5.78
2023-02-11T16:27:38.894Z,7.70
2023-02-11T16:30:07.300Z,6.53
2023-02-11T16:32:34.806Z,6.25
2023-02-11T16:35:02.180Z,6.78
2023-02-11T16:37:32.642Z,6.50
2023-02-11T16:40:23.857Z,7.88
2023-02-11T16:42:49.249Z,8.10
2023-02-11T16:45:16.612Z,6.97
2023-02-11T16:47:47.494Z,6.72
2023-02-11T16:50:22.211Z,6.90
2023-02-11T16:52:49.537Z,6.28
2023-02-11T16:55:16.720Z,6.55
2023-02-11T16:57:44.297Z,6.60
2023-02-11T17:00:12.017Z,6.88
2023-02-11T17:02:39.596Z,6.82
2023-02-11T17:05:08.214Z,7.70
2023-02-11T17:07:35.950Z,8.57
2023-02-11T17:10:03.417Z,6.70
2023-02-11T17:12:30.572Z,6.50
2023-02-11T17:14:57.718Z,7.10
2023-02-11T17:17:24.805Z,6.53
2023-02-11T17:19:52.094Z,6.65
2023-02-11T17:22:19.430Z,6.57
2023-02-11T17:24:46.643Z,7.32
2023-02-11T17:27:13.947Z,7.28
2023-02-11T17:29:41.308Z,7.10
2023-02-11T17:32:08.814Z,7.60
2023-02-11T17:34:36.056Z,8.30
2023-02-11T17:37:09.202Z,8.25
2023-02-11T17:39:40.268Z,9.07
2023-02-11T17:42:08.778Z,9.27
2023-02-11T17:44:36.170Z,9.10
2023-02-11T17:47:03.961Z,8.57
2023-02-11T17:49:31.218Z,7.60
2023-02-11T17:51:58.476Z,8.68
2023-02-11T17:54:26.236Z,8.10
2023-02-11T17:56:57.833Z,8.52
2023-02-11T17:59:25.948Z,7.85
2023-02-11T18:01:53.227Z,8.98
2023-02-11T18:04:20.610Z,9.05
2023-02-11T18:06:48.144Z,9.18
2023-02-11T18:09:15.422Z,9.10
2023-02-11T18:11:42.901Z,8.73
2023-02-11T18:14:10.685Z,9.35
2023-02-11T18:16:39.541Z,8.15
2023-02-11T18:19:07.957Z,8.10
2023-02-11T18:21:35.565Z,8.90
2023-02-11T18:24:06.842Z,7.60
2023-02-11T18:26:34.564Z,8.80
2023-02-11T18:29:01.970Z,8.23
2023-02-11T18:31:29.195Z,9.48
2023-02-11T18:33:56.664Z,9.45
2023-02-11T18:36:24.118Z,8.48
2023-02-11T18:38:53.355Z,8.73
2023-02-11T18:41:20.679Z,8.95
2023-02-11T18:43:47.891Z,8.60
2023-02-11T18:46:15.826Z,9.60
2023-02-11T18:48:44.739Z,10.18
2023-02-11T18:51:13.553Z,9.57
2023-02-11T18:53:41.020Z,9.25
2023-02-11T18:56:09.604Z,8.93
2023-02-11T18:58:38.066Z,9.45
2023-02-11T19:01:16.301Z,11.00
2023-02-11T19:03:44.358Z,10.20
2023-02-11T19:06:16.144Z,8.52
2023-02-11T19:08:43.567Z,9.45
2023-02-11T19:11:10.869Z,9.77
2023-02-11T19:13:38.109Z,10.70
2023-02-11T19:16:08.200Z,11.55
2023-02-11T19:18:38.728Z,11.55
2023-02-11T19:21:10.067Z,23.17
2023-02-11T19:23:37.613Z,13.27
2023-02-11T19:26:06.426Z,9.40
2023-02-11T19:28:35.164Z,12.07
2023-02-11T19:31:06.310Z,17.05
2023-02-11T19:33:33.573Z,18.25
2023-02-11T19:36:05.324Z,12.68
2023-02-11T19:38:32.444Z,9.45
2023-02-11T19:40:59.640Z,11.55
2023-02-11T19:43:26.988Z,10.57
2023-02-11T19:45:56.461Z,19.20
2023-02-11T19:48:26.794Z,12.00
2023-02-11T19:53:22.002Z,12.63
2023-02-11T19:55:50.055Z,17.60
2023-02-11T19:58:17.714Z,26.48
2023-02-11T20:00:44.834Z,12.50
2023-02-11T20:03:12.247Z,10.05
2023-02-11T20:05:47.208Z,12.55
2023-02-11T20:08:17.163Z,23.67
2023-02-11T20:10:44.077Z,13.00
2023-02-11T20:13:11.537Z,9.75
2023-02-11T20:15:38.739Z,8.52
2023-02-11T20:18:06.021Z,10.07
2023-02-11T20:20:33.238Z,10.77
2023-02-11T20:23:00.554Z,8.07
2023-02-11T20:25:28.048Z,8.00
2023-02-11T20:27:55.371Z,9.32
2023-02-11T20:30:22.777Z,9.90
2023-02-11T20:32:50.041Z,9.65
2023-02-11T20:35:17.813Z,9.40
2023-02-11T20:37:45.176Z,9.10
2023-02-11T20:40:12.567Z,9.90
2023-02-11T20:42:40.593Z,9.23
2023-02-11T20:45:08.388Z,9.23
2023-02-11T20:47:35.637Z,10.15
2023-02-11T20:50:02.952Z,10.65
2023-02-11T20:52:30.280Z,11.60
2023-02-11T20:54:57.613Z,9.65
2023-02-11T20:57:24.722Z,9.70
2023-02-11T20:59:52.138Z,9.10
2023-02-11T21:02:23.554Z,9.63
2023-02-11T21:04:51.730Z,10.85
2023-02-11T21:07:21.679Z,10.45
2023-02-11T21:09:48.880Z,10.45
2023-02-11T21:12:16.094Z,8.35
2023-02-11T21:14:43.470Z,9.52
2023-02-11T21:17:13.042Z,8.23
2023-02-11T21:19:41.549Z,9.23
2023-02-11T21:22:08.898Z,9.00
2023-02-11T21:24:36.166Z,10.05
2023-02-11T21:27:03.548Z,9.73
2023-02-11T21:29:30.718Z,9.82
2023-02-11T21:31:57.932Z,8.63
2023-02-11T21:34:25.245Z,10.50
2023-02-11T21:36:53.342Z,10.25
2023-02-11T21:39:20.805Z,11.07
2023-02-11T21:41:48.078Z,9.48
2023-02-11T21:44:15.363Z,8.05
2023-02-11T21:46:42.700Z,9.82
2023-02-11T21:49:09.987Z,9.65
2023-02-11T21:51:37.020Z,9.68
2023-02-11T21:54:04.456Z,10.00
2023-02-11T21:56:33.301Z,9.07
2023-02-11T21:59:00.822Z,9.90
2023-02-11T22:01:29.199Z,9.73
2023-02-11T22:03:57.227Z,9.70
2023-02-11T22:06:31.239Z,10.95
2023-02-11T22:08:59.468Z,10.43
2023-02-11T22:11:26.632Z,9.00
2023-02-11T22:13:55.983Z,9.73
2023-02-11T22:16:23.390Z,9.95
2023-02-11T22:18:51.514Z,9.45
2023-02-11T22:21:22.070Z,10.30
2023-02-11T22:26:18.125Z,9.60
2023-02-11T22:28:45.553Z,9.50
2023-02-11T22:31:13.810Z,10.23
2023-02-11T22:33:41.467Z,9.30
2023-02-11T22:36:10.117Z,10.00
2023-02-11T22:38:37.262Z,10.57
2023-02-11T22:41:09.013Z,9.85
2023-02-11T22:43:36.896Z,10.35
2023-02-11T22:46:05.670Z,9.40
2023-02-11T22:48:34.210Z,9.70
2023-02-11T22:51:08.543Z,10.00
2023-02-11T22:53:35.772Z,10.75
2023-02-11T22:56:14.810Z,9.93
2023-02-11T22:58:42.627Z,10.52
2023-02-11T23:01:09.978Z,9.68
2023-02-11T23:03:37.540Z,10.70
2023-02-11T23:06:05.029Z,9.40
2023-02-11T23:08:32.587Z,9.40
2023-02-11T23:11:07.509Z,9.52
2023-02-11T23:13:37.456Z,9.90
2023-02-11T23:16:05.994Z,10.38
2023-02-11T23:18:33.391Z,10.90
2023-02-11T23:21:05.704Z,10.38
2023-02-11T23:23:33.121Z,9.90
2023-02-11T23:26:00.420Z,10.57
2023-02-11T23:28:27.705Z,10.13
2023-02-11T23:30:55.493Z,11.00
2023-02-11T23:33:23.002Z,11.35
2023-02-11T23:35:50.190Z,10.48
2023-02-11T23:38:17.379Z,10.40
2023-02-11T23:40:44.530Z,10.23
2023-02-11T23:43:11.857Z,10.93
2023-02-11T23:45:39.227Z,10.85
2023-02-11T23:48:06.408Z,11.13
2023-02-11T23:50:34.506Z,11.50
2023-02-11T23:53:01.883Z,10.98
2023-02-11T23:55:28.983Z,11.48
2023-02-11T23:57:56.180Z,11.05
